Terminal Aerodrome Forecast
Issued by NWS

Home | Current Version | Previous Version | Graphics & Text | Print | Product List | Glossary On
Versions: 1 2 3 4 5 6 7 8 9 10 11 12 13 14 15 16 17 18
000
FTUS43 KMPX 241136
TAFAXN
TAF
KAXN 241136Z 2412/2512 10010KT P6SM VCSH OVC050
     FM241500 09010KT 6SM -RA BR OVC035
      TEMPO 2418/2422 3SM -RA BR BKN025
     FM250000 09008KT P6SM OVC025
     FM250300 08010KT 4SM -RA BR OVC015=

USA.gov is the U.S. government's official web portal to all federal, state and local government web resources and services.